• Join FlightAware (Why Join?)
  • Login
  • US Flag GB Flag 
07:28 EDT


 

Airport Tracker/Info


-or-


 

Live Flight TrackerFlight Track Log ✈ EJA922 ✈ 17-Jan-2014 ✈ F70 - KSFO

Flight Track Log - Related Links

Times and Time Zones

All times are in EST time to prevent confusion due to time zone crossing. See the EJA922 flight status page for this flight to view local times or setup timezone preferences in your user account.

Time Position Orientation Groundspeed Altitude Reporting Facility
EST Latitude Longitude Course Direction KTS MPH feet Rate Location/Type
14:39 33.7378 -117.1717 314° West 273 314 5,000  Level Los Angeles Center
14:40 33.8033 -117.2339 322° Northwest 256 295 5,100 1,500 Climbing Los Angeles Center
14:41 33.8761 -117.2522 348° North 272 313 8,500 2,880 Climbing Los Angeles Center
14:42 33.9575 -117.2642 353° North 290 334 11,100 1,680 Climbing Los Angeles Center
14:43 34.2801 -117.9871 315° West  Level Estimated
14:43 34.0581 -117.2806 352° North 361 415 12,000  Level Los Angeles Center
14:44 34.3582 -118.0834 314° West  Level Estimated
14:44 34.1661 -117.3603 329° Northwest 412 474 13,000  Level Los Angeles Center
14:45 34.2108 -117.4847 294° West 408 470 14,200 2,040 Climbing Los Angeles Center
14:46 34.2564 -117.6069 294° West 403 464 17,300 2,880 Climbing Los Angeles Center
14:47 34.2981 -117.7233 293° West 388 447 20,200 2,460 Climbing Los Angeles Center
14:48 34.3425 -117.8414 295° West 386 444 22,500 2,100 Climbing Los Angeles Center
14:49 34.3983 -117.9928 294° West 409 471 24,600 1,920 Climbing Los Angeles Center
14:50 34.4428 -118.1119 294° West 430 495 26,500 1,860 Climbing Los Angeles Center
14:51 34.4989 -118.2628 294° West 446 513 28,500 1,920 Climbing Los Angeles Center
14:52 34.5606 -118.3964 299° West 455 524 30,500 1,500 Climbing Los Angeles Center
14:53 34.6308 -118.5336 302° West 478 550 31,600 720 Climbing Los Angeles Center
14:54 34.7192 -118.7031 302° West 495 570 32,000 180 Climbing Los Angeles Center
14:55 34.7931 -118.8450 302° West 498 573 32,000  Level Los Angeles Center
14:56 34.8658 -118.9853 302° West 494 568 32,000  Level Los Angeles Center
14:57 34.9381 -119.1278 302° West 474 545 32,000  Level Los Angeles Center
14:58 35.0061 -119.2617 302° West 467 537 32,000  Level Los Angeles Center
14:59 35.0747 -119.3944 302° West 464 534 32,000  Level Los Angeles Center
15:00 35.1417 -119.5258 302° West 458 527 32,000  Level Los Angeles Center
15:02 35.2214 -119.6825 302° West 452 520 32,000  Level Los Angeles Center
15:03 35.2836 -119.8050 302° West 428 493 32,000  Level Los Angeles Center
15:04 35.3447 -119.9269 302° West 422 486 32,000  Level Los Angeles Center
15:05 35.4267 -120.0292 315° West 436 502 32,000 -60 Level Los Angeles Center
15:06 35.4600 -120.2003 283° West 431 496 31,900  Descending Los Angeles Center
15:07 35.4808 -120.3422 280° West 439 505 32,000  Climbing Los Angeles Center
15:08 35.5531 -120.4753 304° West 466 536 32,000  Level Los Angeles Center
15:09 35.6458 -120.6444 304° West 498 573 32,000  Level Los Angeles Center
15:10 35.7147 -120.7703 304° West 504 580 32,000  Level Los Angeles Center
15:11 35.8075 -120.9403 304° West 501 577 32,000 -780 Level Los Angeles Center
15:12 35.8783 -121.0728 303° West 467 537 30,400 -1,380 Descending Los Angeles Center
15:13 35.9325 -121.2458 291° West 460 529 29,000 -660 Descending Oakland Center
15:14 35.9592 -121.4042 282° West 469 540 29,000  Level Oakland Center
15:15 35.9839 -121.5561 281° West 458 527 29,000  Level Oakland Center
15:16 36.0097 -121.6961 283° West 427 491 29,000 -540 Level Oakland Center
15:17 36.1072 -121.7642 331° Northwest 423 487 27,900 -1,980 Descending Oakland Center
15:18 36.2222 -121.7728 357° North 418 481 25,000 -2,520 Descending Oakland Center
15:19 36.3308 -121.8136 343° North 407 468 22,800 -1,860 Descending Oakland Center
15:20 36.4347 -121.8500 344° North 390 449 21,300 -1,380 Descending Oakland Center
15:21 36.5553 -121.8956 343° North 380 437 20,000 -1,140 Descending Oakland Center
15:22 36.6531 -121.9322 343° North 370 426 19,000 -1,320 Descending Oakland Center
15:24 36.7492 -121.9667 344° North 364 419 17,300 -1,860 Descending Oakland Center
15:25 36.8419 -121.9908 348° North 348 400 15,200 -1,920 Descending Oakland Center
15:26 36.9336 -122.0139 349° North 338 389 13,400 -1,740 Descending Oakland Center
15:27 37.0231 -122.0375 348° North 332 382 11,700 -1,320 Descending Oakland Center
15:28 37.1111 -122.0600 348° North 325 374 10,700 -1,320 Descending Oakland Center
15:29 37.2083 -122.0872 347° North 303 349 9,000 -1,800 Descending Oakland Center
15:30 37.2856 -122.1083 348° North 288 331 7,100 -1,500 Descending Oakland Center
15:31 37.3608 -122.1269 349° North 281 323 5,900 -960 Descending Oakland Center
15:32 37.4222 -122.1431 348° North 238 274 5,200 -540 Descending Oakland Center
15:33 37.4756 -122.1575 348° North 206 237 4,900 -720 Descending Oakland Center
15:34 37.5222 -122.1836 336° Northwest 189 217 3,800 -1,140 Descending Oakland Center
15:35 37.5600 -122.2311 315° West 190 219 2,600 -1,140 Descending Oakland Center
15:36 37.5861 -122.2947 297° West 177 204 1,500 -1,020 Descending Oakland Center
15:37 37.6058 -122.3394 299° West 162 186 500 -600 Descending Oakland Center
15:38 37.6253 -122.3836 299° West 159 183 300 -240 Descending Oakland Center
15:40 37.6167 -122.3667 90° East  Level FlightAware Approximate